Time;durP1;ratioP1;P1;durP2;ratioP2;P2;SDS_P1;SDS_P2;PMS_P1;PMS_P2;Temp;Humidity;BMP_temperature;BMP_pressure;BME280_temperature;BME280_humidity;BME280_pressure;Samples;Min_cycle;Max_cycle;Signal;HPM_P1;HPM_P2
2023/06/28 00:01:01;;;;;;;1.33;1.17;;;18.60;56.20;;;;;;5091495;28;20648;-74
2023/06/28 00:03:28;;;;;;;1.27;1.17;;;18.60;55.80;;;;;;5093126;28;20668;-74
2023/06/28 00:05:55;;;;;;;5.20;1.60;;;18.50;55.60;;;;;;5092713;28;20662;-74
2023/06/28 00:08:22;;;;;;;1.50;1.40;;;18.50;55.40;;;;;;5085567;28;20626;-74
2023/06/28 00:10:50;;;;;;;1.80;1.27;;;18.50;55.30;;;;;;5087743;28;20661;-74
2023/06/28 00:13:17;;;;;;;1.23;1.13;;;18.50;55.30;;;;;;5098672;28;21227;-74
2023/06/28 00:15:45;;;;;;;2.00;1.23;;;18.50;55.10;;;;;;5088500;28;20657;-74
2023/06/28 00:18:12;;;;;;;1.30;1.20;;;18.40;55.60;;;;;;5098456;28;20628;-74
2023/06/28 00:20:40;;;;;;;3.27;1.17;;;18.40;55.30;;;;;;5095221;28;21006;-74
2023/06/28 00:23:08;;;;;;;3.00;1.70;;;18.40;55.00;;;;;;5094930;28;20656;-74
2023/06/28 00:25:34;;;;;;;1.70;1.10;;;18.30;54.90;;;;;;5091008;28;20658;-74
2023/06/28 00:28:03;;;;;;;1.63;1.00;;;18.40;55.10;;;;;;5087461;28;20629;-74
2023/06/28 00:30:31;;;;;;;1.27;1.10;;;18.40;55.20;;;;;;5100172;28;20662;-74
2023/06/28 00:32:58;;;;;;;2.03;1.50;;;18.40;55.20;;;;;;5100319;28;20735;-74
2023/06/28 00:35:25;;;;;;;1.43;1.33;;;18.50;54.70;;;;;;5094330;28;20725;-74
2023/06/28 00:37:52;;;;;;;1.40;1.27;;;18.40;55.10;;;;;;5091129;28;20660;-74
2023/06/28 00:40:18;;;;;;;1.30;1.20;;;18.40;55.30;;;;;;5100426;28;20624;-75
2023/06/28 00:42:45;;;;;;;2.87;1.00;;;18.40;55.40;;;;;;5099930;28;20657;-74
2023/06/28 00:45:14;;;;;;;1.90;1.27;;;18.30;55.20;;;;;;5103153;28;20624;-74
2023/06/28 00:47:42;;;;;;;1.27;1.17;;;18.30;55.20;;;;;;5102051;27;20624;-74
2023/06/28 00:50:10;;;;;;;0.83;0.80;;;18.30;55.80;;;;;;5098456;28;20626;-74
2023/06/28 00:52:37;;;;;;;1.90;1.17;;;18.30;55.90;;;;;;5098493;28;20732;-74
2023/06/28 00:55:05;;;;;;;1.40;1.10;;;18.30;55.60;;;;;;5088109;28;20634;-74
2023/06/28 00:57:32;;;;;;;1.03;1.03;;;18.40;55.80;;;;;;5097082;28;20730;-74
2023/06/28 01:00:00;;;;;;;1.30;1.20;;;18.40;55.40;;;;;;5095114;28;20627;-73
2023/06/28 01:02:29;;;;;;;2.13;1.33;;;18.30;55.90;;;;;;5097437;28;20671;-74
2023/06/28 01:04:57;;;;;;;1.53;1.03;;;18.20;55.30;;;;;;5090917;28;21173;-74
2023/06/28 01:07:26;;;;;;;1.20;0.90;;;18.10;55.20;;;;;;5093873;28;20755;-74
2023/06/28 01:09:52;;;;;;;1.27;1.17;;;18.00;55.40;;;;;;5100015;28;20669;-74
2023/06/28 01:12:20;;;;;;;1.40;1.30;;;18.00;55.50;;;;;;5099207;28;20705;-74
2023/06/28 01:14:47;;;;;;;1.50;1.23;;;18.00;55.70;;;;;;5097279;28;20920;-74
2023/06/28 01:17:13;;;;;;;1.23;1.10;;;18.00;55.70;;;;;;5097215;28;20644;-74
2023/06/28 01:19:42;;;;;;;1.60;1.40;;;18.00;56.00;;;;;;5079831;28;20723;-73
2023/06/28 01:22:12;;;;;;;2.97;1.33;;;18.00;55.90;;;;;;5089250;28;20671;-74
2023/06/28 01:24:42;;;;;;;2.20;1.47;;;18.00;56.00;;;;;;5092204;28;21035;-73
2023/06/28 01:27:11;;;;;;;1.03;0.93;;;18.00;56.20;;;;;;5094606;28;21360;-75
2023/06/28 01:29:39;;;;;;;2.33;2.07;;;18.10;56.20;;;;;;5090261;28;20716;-74
2023/06/28 01:32:08;;;;;;;1.57;1.47;;;18.10;56.10;;;;;;5091804;28;20842;-74
2023/06/28 01:34:37;;;;;;;1.50;1.13;;;18.20;56.10;;;;;;5089084;28;20732;-74
2023/06/28 01:37:05;;;;;;;1.53;1.43;;;18.30;56.50;;;;;;5097901;28;20656;-73
2023/06/28 01:39:34;;;;;;;1.63;1.50;;;18.30;56.30;;;;;;5096992;28;21199;-74
2023/06/28 01:42:02;;;;;;;6.73;1.43;;;18.30;56.30;;;;;;5090670;28;20704;-74
2023/06/28 01:44:30;;;;;;;1.80;1.70;;;18.30;56.80;;;;;;5100527;28;20629;-74
2023/06/28 01:46:57;;;;;;;1.70;1.57;;;18.20;57.30;;;;;;5094335;28;20653;-74
2023/06/28 01:49:25;;;;;;;1.67;1.10;;;18.10;57.20;;;;;;5097924;28;20637;-74
2023/06/28 01:51:54;;;;;;;1.77;1.67;;;18.10;57.70;;;;;;5096957;28;20702;-74
2023/06/28 01:54:21;;;;;;;1.60;1.33;;;18.10;57.50;;;;;;5097716;28;20629;-74
2023/06/28 01:56:48;;;;;;;1.60;1.47;;;18.20;57.20;;;;;;5100217;28;20766;-74
2023/06/28 01:59:17;;;;;;;1.60;1.40;;;18.10;57.90;;;;;;5098006;28;20724;-74
2023/06/28 02:01:45;;;;;;;2.10;1.63;;;18.10;59.50;;;;;;5089860;28;20756;-74
2023/06/28 02:04:12;;;;;;;1.60;1.50;;;18.10;61.00;;;;;;5100598;28;20664;-74
2023/06/28 02:06:41;;;;;;;2.20;2.00;;;18.00;63.40;;;;;;5092499;28;20665;-74
2023/06/28 02:09:11;;;;;;;1.50;1.50;;;17.80;64.80;;;;;;5094658;28;20750;-73
2023/06/28 02:11:39;;;;;;;1.70;1.60;;;17.80;64.40;;;;;;5092508;28;20662;-74
2023/06/28 02:14:06;;;;;;;1.63;1.53;;;17.80;64.90;;;;;;5095696;28;20659;-74
2023/06/28 02:16:34;;;;;;;1.90;1.60;;;17.70;64.60;;;;;;5102425;28;20659;-74
2023/06/28 02:19:02;;;;;;;2.90;2.60;;;17.70;66.30;;;;;;5097389;28;20613;-74
2023/06/28 02:21:29;;;;;;;2.10;2.00;;;17.60;65.10;;;;;;5082862;28;21056;-73
2023/06/28 02:23:56;;;;;;;2.33;2.13;;;17.60;65.80;;;;;;5095179;28;21032;-74
2023/06/28 02:26:23;;;;;;;3.00;1.60;;;17.60;66.00;;;;;;5099915;28;20652;-74
2023/06/28 02:28:50;;;;;;;1.87;1.73;;;17.60;65.70;;;;;;5083616;28;20637;-74
2023/06/28 02:31:17;;;;;;;1.90;1.80;;;17.50;67.10;;;;;;5091977;28;20703;-74
2023/06/28 02:33:45;;;;;;;5.23;1.47;;;17.50;67.20;;;;;;5092147;28;20672;-74
2023/06/28 02:36:13;;;;;;;1.37;1.20;;;17.60;64.30;;;;;;5100122;28;21022;-74
2023/06/28 02:38:39;;;;;;;1.80;1.57;;;17.70;61.20;;;;;;5085839;28;20618;-75
2023/06/28 02:41:06;;;;;;;1.50;1.40;;;17.70;60.70;;;;;;5079473;28;20654;-74
2023/06/28 02:43:33;;;;;;;4.77;1.43;;;17.80;60.70;;;;;;5099462;28;20678;-75
2023/06/28 02:46:00;;;;;;;1.30;1.20;;;17.80;60.60;;;;;;5097915;28;20701;-75
2023/06/28 02:48:26;;;;;;;1.70;1.53;;;17.90;60.20;;;;;;5097831;28;20625;-75
2023/06/28 02:50:55;;;;;;;2.53;1.87;;;17.90;60.20;;;;;;5096407;28;20639;-74
2023/06/28 02:53:21;;;;;;;2.30;1.63;;;17.80;60.40;;;;;;5088973;28;21198;-74
2023/06/28 02:55:48;;;;;;;1.70;1.60;;;17.80;61.00;;;;;;5098558;28;20644;-74
2023/06/28 02:58:15;;;;;;;1.47;1.37;;;17.80;61.10;;;;;;5091496;28;21216;-74
2023/06/28 03:00:46;;;;;;;2.37;1.67;;;17.80;60.60;;;;;;5080564;28;20666;-75
2023/06/28 03:03:13;;;;;;;1.50;1.40;;;17.90;60.50;;;;;;5097438;28;20692;-74
2023/06/28 03:05:41;;;;;;;1.90;1.70;;;17.80;60.70;;;;;;5091953;28;20660;-74
2023/06/28 03:08:10;;;;;;;2.20;1.83;;;17.70;60.90;;;;;;5082499;28;20720;-74
2023/06/28 03:10:38;;;;;;;1.30;1.20;;;17.70;61.00;;;;;;5096120;28;20690;-75
2023/06/28 03:13:05;;;;;;;2.00;1.63;;;17.70;62.40;;;;;;5101230;28;20631;-75
2023/06/28 03:15:33;;;;;;;1.40;1.30;;;17.60;61.50;;;;;;5095951;28;20640;-74
2023/06/28 03:18:00;;;;;;;1.87;1.77;;;17.50;63.10;;;;;;5095928;28;20631;-75
2023/06/28 03:20:28;;;;;;;1.97;1.77;;;17.50;63.60;;;;;;5093432;28;20675;-75
2023/06/28 03:22:55;;;;;;;2.57;1.90;;;17.50;64.00;;;;;;5092562;28;20741;-75
2023/06/28 03:25:25;;;;;;;1.90;1.80;;;17.50;62.30;;;;;;5094508;28;21102;-75
2023/06/28 03:27:52;;;;;;;1.43;1.33;;;17.50;62.70;;;;;;5089115;28;20621;-75
2023/06/28 03:30:19;;;;;;;2.03;1.77;;;17.50;63.00;;;;;;5088435;28;20644;-74
2023/06/28 03:32:46;;;;;;;1.90;1.77;;;17.50;61.50;;;;;;5095420;28;20665;-75
2023/06/28 03:35:13;;;;;;;2.27;2.07;;;17.60;61.40;;;;;;5092985;28;20735;-75
2023/06/28 03:37:48;;;;;;;1.57;1.47;;;17.70;61.40;;;;;;5091242;28;21286;-74
2023/06/28 03:40:17;;;;;;;2.20;1.90;;;17.70;60.40;;;;;;5096757;28;20671;-74
2023/06/28 03:42:47;;;;;;;2.13;1.93;;;17.80;60.80;;;;;;5085694;28;20701;-74
2023/06/28 03:45:14;;;;;;;1.57;1.47;;;17.70;60.50;;;;;;5087868;28;20661;-74
2023/06/28 03:47:43;;;;;;;1.87;1.57;;;17.70;61.00;;;;;;5088185;28;21076;-75
2023/06/28 03:50:11;;;;;;;1.93;1.77;;;17.70;61.80;;;;;;5091423;28;20629;-75
2023/06/28 03:52:39;;;;;;;1.67;1.40;;;17.70;61.40;;;;;;5093601;28;20988;-74
2023/06/28 03:55:07;;;;;;;1.40;1.30;;;17.60;61.60;;;;;;5095767;28;20614;-74
2023/06/28 03:57:34;;;;;;;2.17;1.73;;;17.60;61.70;;;;;;5096895;28;20621;-74
2023/06/28 04:00:07;;;;;;;1.57;1.47;;;17.50;61.80;;;;;;5093902;28;20733;-75
2023/06/28 04:02:34;;;;;;;1.67;1.57;;;17.60;62.00;;;;;;5088572;28;20856;-74
2023/06/28 04:05:04;;;;;;;1.87;1.77;;;17.60;62.50;;;;;;5102584;28;20732;-74
2023/06/28 04:07:33;;;;;;;3.00;1.43;;;17.70;62.40;;;;;;5086477;28;20629;-75
2023/06/28 04:10:01;;;;;;;1.70;1.47;;;17.70;62.20;;;;;;5095951;28;20634;-75
2023/06/28 04:12:30;;;;;;;1.80;1.70;;;17.60;62.60;;;;;;5093518;28;20621;-75
2023/06/28 04:14:59;;;;;;;1.53;1.33;;;17.50;62.70;;;;;;5094324;28;20645;-74
2023/06/28 04:17:29;;;;;;;1.87;1.70;;;17.50;62.90;;;;;;5098067;28;20692;-75
2023/06/28 04:19:57;;;;;;;1.83;1.73;;;17.40;63.90;;;;;;5104955;28;20619;-74
2023/06/28 04:22:24;;;;;;;1.53;1.43;;;17.40;64.60;;;;;;5090473;28;20660;-75
2023/06/28 04:24:51;;;;;;;1.43;1.33;;;17.20;65.30;;;;;;5098040;28;21006;-74
2023/06/28 04:27:20;;;;;;;1.37;1.27;;;17.10;65.30;;;;;;5100171;28;21255;-75
2023/06/28 04:29:47;;;;;;;3.00;1.70;;;17.00;65.80;;;;;;5101658;28;20823;-74
2023/06/28 04:32:22;;;;;;;1.90;1.77;;;17.00;66.80;;;;;;5095603;28;20641;-74
2023/06/28 04:34:52;;;;;;;1.87;1.73;;;16.90;67.10;;;;;;5098390;28;20623;-74
2023/06/28 04:37:25;;;;;;;1.83;1.60;;;17.10;66.20;;;;;;5093782;28;20652;-74
2023/06/28 04:39:55;;;;;;;1.57;1.47;;;17.20;65.30;;;;;;5085342;28;20643;-75
2023/06/28 04:42:22;;;;;;;1.50;1.40;;;17.20;65.30;;;;;;5093810;28;20748;-74
2023/06/28 04:44:49;;;;;;;1.97;1.87;;;17.20;66.10;;;;;;5090140;28;21345;-74
2023/06/28 04:47:17;;;;;;;1.60;1.50;;;17.20;67.10;;;;;;5090562;28;20693;-75
2023/06/28 04:49:47;;;;;;;2.43;1.73;;;17.20;66.00;;;;;;5099038;28;20612;-74
2023/06/28 04:52:18;;;;;;;1.43;1.40;;;17.40;64.30;;;;;;5093591;28;20652;-74
2023/06/28 04:54:46;;;;;;;2.10;2.00;;;17.40;65.00;;;;;;5099184;28;21028;-74
2023/06/28 04:57:14;;;;;;;1.77;1.67;;;17.40;64.20;;;;;;5096135;28;20715;-74
2023/06/28 04:59:42;;;;;;;1.43;1.43;;;17.30;64.70;;;;;;5099836;28;20620;-75
2023/06/28 05:02:09;;;;;;;1.40;1.30;;;17.30;65.70;;;;;;5092173;28;20748;-73
2023/06/28 05:04:37;;;;;;;2.50;1.80;;;17.30;65.90;;;;;;5098680;28;20683;-73
2023/06/28 05:07:06;;;;;;;2.37;1.93;;;17.40;65.90;;;;;;5093787;28;20640;-73
2023/06/28 05:09:35;;;;;;;1.60;1.50;;;17.40;67.10;;;;;;5096410;28;20620;-73
2023/06/28 05:12:04;;;;;;;3.00;2.03;;;17.40;66.10;;;;;;5088733;28;20648;-73
2023/06/28 05:14:31;;;;;;;1.27;1.27;;;17.50;63.50;;;;;;5096532;28;20633;-73
2023/06/28 05:16:58;;;;;;;2.13;2.03;;;17.60;64.50;;;;;;5087719;28;21096;-73
2023/06/28 05:19:26;;;;;;;1.73;1.63;;;17.50;64.70;;;;;;5099301;28;20635;-73
2023/06/28 05:21:53;;;;;;;5.07;1.60;;;17.50;64.80;;;;;;5088076;28;20657;-73
2023/06/28 05:24:20;;;;;;;1.30;1.20;;;17.50;64.50;;;;;;5099038;28;20668;-72
2023/06/28 05:26:48;;;;;;;2.17;2.03;;;17.40;64.40;;;;;;5087712;28;20653;-74
2023/06/28 05:29:15;;;;;;;1.80;1.70;;;17.50;63.70;;;;;;5091087;28;20612;-75
2023/06/28 05:31:42;;;;;;;1.77;1.67;;;17.50;65.00;;;;;;5101188;28;21320;-74
2023/06/28 05:34:11;;;;;;;1.80;1.70;;;17.70;63.40;;;;;;5092857;28;20623;-74
2023/06/28 05:36:37;;;;;;;1.70;1.60;;;17.80;62.10;;;;;;5100440;28;21043;-75
2023/06/28 05:39:05;;;;;;;1.60;1.50;;;17.80;64.80;;;;;;5088002;28;20736;-75
2023/06/28 05:41:31;;;;;;;2.80;1.83;;;17.80;64.80;;;;;;5077240;28;20640;-73
2023/06/28 05:44:00;;;;;;;2.10;1.93;;;17.70;64.60;;;;;;5100616;28;21024;-73
2023/06/28 05:46:26;;;;;;;2.40;2.20;;;17.70;64.30;;;;;;5095932;28;20755;-73
2023/06/28 05:48:53;;;;;;;2.80;1.80;;;17.80;64.80;;;;;;5096281;28;20628;-74
2023/06/28 05:51:20;;;;;;;1.70;1.60;;;17.70;62.50;;;;;;5095753;28;20665;-74
2023/06/28 05:53:46;;;;;;;1.87;1.77;;;17.70;63.50;;;;;;5096514;28;20616;-74
2023/06/28 05:56:13;;;;;;;1.40;1.33;;;17.80;63.80;;;;;;5093686;28;20651;-73
2023/06/28 05:58:40;;;;;;;2.27;2.13;;;17.90;63.60;;;;;;5094375;28;20624;-73
2023/06/28 06:01:09;;;;;;;3.30;2.47;;;18.00;61.30;;;;;;5092584;28;20748;-73
2023/06/28 06:03:35;;;;;;;3.60;2.63;;;18.20;60.70;;;;;;5085644;28;20671;-73
2023/06/28 06:06:02;;;;;;;2.13;1.93;;;18.20;61.80;;;;;;5099592;28;20652;-73
2023/06/28 06:08:29;;;;;;;1.70;1.60;;;18.10;62.50;;;;;;5098796;28;20730;-73
2023/06/28 06:10:56;;;;;;;2.23;2.00;;;18.10;63.60;;;;;;5097104;28;20645;-73
2023/06/28 06:13:22;;;;;;;1.70;1.60;;;18.10;61.30;;;;;;5087424;28;20608;-74
2023/06/28 06:15:49;;;;;;;1.60;1.50;;;18.10;59.80;;;;;;5094707;28;20648;-73
2023/06/28 06:18:17;;;;;;;1.40;1.30;;;18.20;60.90;;;;;;5096096;28;20620;-73
2023/06/28 06:20:44;;;;;;;2.00;1.80;;;18.30;61.80;;;;;;5086480;28;21328;-73
2023/06/28 06:23:25;;;;;;;2.10;2.00;;;18.20;60.90;;;;;;5080981;28;20730;-72
2023/06/28 06:26:13;;;;;;;1.73;1.60;;;18.30;61.10;;;;;;5076734;28;20634;-72
2023/06/28 06:28:39;;;;;;;1.43;1.33;;;18.10;59.80;;;;;;5088794;28;21190;-72
2023/06/28 06:31:06;;;;;;;1.80;1.70;;;18.00;60.00;;;;;;5086140;28;20657;-72
2023/06/28 06:33:35;;;;;;;1.80;1.70;;;18.10;60.90;;;;;;5091194;28;20628;-71
2023/06/28 06:36:02;;;;;;;2.37;2.17;;;18.10;62.70;;;;;;5090150;28;20655;-71
2023/06/28 06:38:30;;;;;;;1.20;1.20;;;18.20;61.00;;;;;;5085552;28;20987;-72
2023/06/28 06:40:57;;;;;;;1.30;1.30;;;18.30;60.70;;;;;;5096884;28;20704;-71
2023/06/28 06:43:24;;;;;;;2.03;1.80;;;18.30;60.30;;;;;;5088264;28;20654;-71
2023/06/28 06:45:51;;;;;;;3.37;1.83;;;18.30;59.50;;;;;;5095903;28;21280;-71
2023/06/28 06:48:17;;;;;;;1.77;1.67;;;18.40;60.70;;;;;;5088162;28;20657;-71
2023/06/28 06:50:45;;;;;;;1.50;1.40;;;18.50;60.30;;;;;;5087226;28;21097;-71
2023/06/28 06:53:12;;;;;;;2.00;1.80;;;18.50;59.10;;;;;;5089128;28;20645;-71
2023/06/28 06:55:40;;;;;;;1.90;1.50;;;18.60;60.00;;;;;;5100145;28;20751;-71
2023/06/28 06:58:07;;;;;;;1.03;1.00;;;18.80;59.40;;;;;;5093191;28;20621;-71
2023/06/28 07:00:33;;;;;;;1.73;1.50;;;18.80;58.80;;;;;;5086916;28;20656;-71
2023/06/28 07:03:00;;;;;;;1.80;1.60;;;18.80;58.50;;;;;;5088779;28;20696;-72
2023/06/28 07:05:32;;;;;;;2.17;1.43;;;19.00;58.80;;;;;;5093682;28;20653;-71
2023/06/28 07:07:59;;;;;;;2.30;1.70;;;19.10;59.00;;;;;;5084774;28;20642;-71
2023/06/28 07:10:26;;;;;;;1.33;1.23;;;19.20;58.70;;;;;;5091342;28;21204;-71
2023/06/28 07:12:54;;;;;;;1.43;1.33;;;19.20;59.00;;;;;;5093816;28;21279;-72
2023/06/28 07:15:21;;;;;;;1.17;1.17;;;19.40;57.50;;;;;;5090766;28;20630;-71
2023/06/28 07:17:48;;;;;;;1.80;1.07;;;19.40;57.80;;;;;;5089638;28;20939;-71
2023/06/28 07:20:14;;;;;;;1.73;1.60;;;19.30;57.70;;;;;;5091468;28;20624;-71
2023/06/28 07:22:41;;;;;;;1.47;1.37;;;19.40;59.00;;;;;;5078783;28;20734;-71
2023/06/28 07:25:08;;;;;;;3.60;2.30;;;19.40;58.70;;;;;;5091915;28;20616;-71
2023/06/28 07:27:35;;;;;;;1.43;1.33;;;19.40;57.00;;;;;;5093017;28;20624;-71
2023/06/28 07:30:04;;;;;;;1.70;1.60;;;19.60;57.70;;;;;;5088323;28;20688;-71
2023/06/28 07:32:31;;;;;;;3.15;1.90;;;19.80;57.90;;;;;;5093712;28;20749;-72
2023/06/28 07:34:57;;;;;;;1.23;1.13;;;19.70;56.60;;;;;;5076587;28;20192;-72
2023/06/28 07:37:24;;;;;;;1.47;1.37;;;19.40;56.00;;;;;;5079004;28;20645;-72
2023/06/28 07:39:51;;;;;;;1.63;1.53;;;19.50;56.60;;;;;;5072174;28;21046;-72
2023/06/28 07:42:19;;;;;;;1.97;1.70;;;19.40;56.10;;;;;;5077133;28;20702;-72
2023/06/28 07:44:46;;;;;;;1.13;1.03;;;19.30;56.00;;;;;;5075974;28;20613;-72
2023/06/28 07:47:14;;;;;;;1.27;1.17;;;19.20;56.70;;;;;;5058326;28;21216;-72
2023/06/28 07:49:41;;;;;;;2.43;1.63;;;19.20;57.30;;;;;;5054259;28;20622;-73
2023/06/28 07:52:09;;;;;;;1.27;1.17;;;19.20;57.10;;;;;;5053250;28;20651;-73
2023/06/28 07:54:36;;;;;;;1.60;1.50;;;19.40;57.90;;;;;;5053376;28;21183;-73
2023/06/28 07:57:03;;;;;;;1.70;1.27;;;19.40;57.60;;;;;;5049505;28;20635;-73
2023/06/28 07:59:30;;;;;;;6.40;1.73;;;19.40;58.30;;;;;;5048035;28;20618;-73
2023/06/28 08:01:57;;;;;;;1.57;1.47;;;19.60;57.90;;;;;;5054057;28;21258;-73
2023/06/28 08:04:25;;;;;;;1.83;1.70;;;19.70;58.50;;;;;;5056705;28;20730;-74
2023/06/28 08:06:52;;;;;;;2.37;1.53;;;19.60;57.20;;;;;;5056798;28;20647;-73
2023/06/28 08:09:18;;;;;;;1.57;1.40;;;19.60;57.70;;;;;;5055926;28;20645;-75
2023/06/28 08:11:45;;;;;;;2.33;1.20;;;19.60;57.70;;;;;;5076069;28;20674;-75
2023/06/28 08:14:12;;;;;;;1.73;1.27;;;19.70;57.90;;;;;;5083494;28;20651;-74
2023/06/28 08:16:39;;;;;;;1.80;1.70;;;19.60;57.70;;;;;;5074641;28;21008;-74
2023/06/28 08:19:05;;;;;;;3.33;2.30;;;19.70;57.40;;;;;;5078992;28;21183;-74
2023/06/28 08:21:33;;;;;;;2.23;2.07;;;20.00;57.10;;;;;;5068229;28;20683;-74
2023/06/28 08:24:00;;;;;;;1.50;1.40;;;19.80;56.90;;;;;;5076803;28;20632;-74
2023/06/28 08:26:27;;;;;;;1.50;1.40;;;20.00;57.70;;;;;;5072954;28;20703;-74
2023/06/28 08:28:54;;;;;;;6.70;1.73;;;19.90;56.80;;;;;;5076132;28;21063;-73
2023/06/28 08:31:21;;;;;;;4.60;2.30;;;19.80;56.60;;;;;;5069660;28;20748;-74
2023/06/28 08:33:47;;;;;;;1.73;1.63;;;19.90;57.30;;;;;;5070734;28;21193;-73
2023/06/28 08:36:14;;;;;;;2.03;1.80;;;19.80;55.70;;;;;;5075428;28;21249;-73
2023/06/28 08:38:42;;;;;;;2.17;1.90;;;20.20;55.70;;;;;;5079090;28;20628;-74
2023/06/28 08:41:09;;;;;;;3.50;1.83;;;20.30;55.50;;;;;;5077474;28;20641;-74
2023/06/28 08:43:37;;;;;;;1.60;1.50;;;20.50;55.50;;;;;;5069753;28;21237;-74
2023/06/28 08:46:04;;;;;;;1.50;1.40;;;20.20;55.70;;;;;;5078639;28;20645;-74
2023/06/28 08:48:31;;;;;;;2.33;1.60;;;19.80;56.10;;;;;;5073017;28;20626;-74
2023/06/28 08:50:58;;;;;;;1.90;1.80;;;19.60;56.60;;;;;;5077112;28;20686;-74
2023/06/28 08:53:28;;;;;;;3.87;2.00;;;19.50;55.90;;;;;;5071512;28;20644;-74
2023/06/28 08:55:59;;;;;;;1.80;1.70;;;19.60;56.00;;;;;;5070621;28;20658;-74
2023/06/28 08:58:27;;;;;;;1.17;1.10;;;20.00;56.80;;;;;;5076437;28;20641;-74
2023/06/28 09:00:54;;;;;;;1.40;1.30;;;20.10;56.30;;;;;;5076760;28;20678;-74
2023/06/28 09:03:21;;;;;;;1.60;1.50;;;20.20;55.20;;;;;;5076788;28;20672;-74
2023/06/28 09:05:48;;;;;;;1.70;1.60;;;20.30;55.20;;;;;;5079075;28;20690;-74
2023/06/28 09:08:18;;;;;;;1.37;1.27;;;20.50;55.60;;;;;;5075443;28;20623;-74
2023/06/28 09:10:46;;;;;;;2.60;1.53;;;20.20;53.80;;;;;;5079169;28;20649;-74
2023/06/28 09:13:19;;;;;;;1.30;1.20;;;20.50;55.00;;;;;;5075195;28;20641;-74
2023/06/28 09:15:46;;;;;;;1.90;1.37;;;20.70;54.60;;;;;;5075602;28;20657;-74
2023/06/28 09:18:13;;;;;;;1.37;1.37;;;20.90;54.10;;;;;;5071733;28;20629;-74
2023/06/28 09:20:51;;;;;;;2.00;1.63;;;21.00;55.10;;;;;;5069848;28;20748;-74
2023/06/28 09:23:23;;;;;;;2.03;1.83;;;20.90;54.20;;;;;;5071832;28;20669;-74
2023/06/28 09:25:51;;;;;;;1.30;1.20;;;20.50;53.80;;;;;;5076679;28;20657;-74
2023/06/28 09:28:20;;;;;;;1.60;1.50;;;20.60;55.60;;;;;;5067550;28;20630;-77
2023/06/28 09:30:52;;;;;;;2.30;1.70;;;20.80;54.40;;;;;;5060013;28;20650;-77
2023/06/28 09:33:19;;;;;;;1.33;1.23;;;21.30;53.70;;;;;;5066285;28;20632;-73
2023/06/28 09:35:46;;;;;;;1.20;1.20;;;21.50;54.30;;;;;;5068902;28;21258;-73
2023/06/28 09:38:13;;;;;;;11.40;2.00;;;21.60;53.50;;;;;;5074473;28;21588;-73
2023/06/28 09:40:40;;;;;;;1.40;1.30;;;21.40;53.20;;;;;;5074969;28;20684;-73
2023/06/28 09:43:07;;;;;;;1.67;1.57;;;21.60;53.10;;;;;;5082987;28;21096;-73
2023/06/28 09:45:36;;;;;;;2.93;1.57;;;21.90;53.60;;;;;;5072927;28;20736;-73
2023/06/28 09:51:39;;;;;;;1.30;1.20;;;21.80;54.30;;;;;;5069296;28;20653;-74
2023/06/28 09:54:06;;;;;;;1.53;1.43;;;22.10;53.40;;;;;;5065253;28;20627;-73
2023/06/28 09:56:35;;;;;;;1.40;1.30;;;22.50;53.00;;;;;;5073387;28;21435;-75
2023/06/28 09:59:05;;;;;;;3.13;1.50;;;22.50;52.10;;;;;;5074468;28;21168;-77
2023/06/28 10:01:34;;;;;;;1.60;1.43;;;22.70;53.10;;;;;;5074458;28;20655;-78
2023/06/28 10:04:01;;;;;;;1.40;1.30;;;22.70;52.80;;;;;;5066388;28;20668;-78
2023/06/28 10:06:30;;;;;;;1.67;1.57;;;22.30;53.20;;;;;;5061468;28;20663;-77
2023/06/28 10:08:59;;;;;;;1.90;1.80;;;22.40;54.10;;;;;;5069719;28;20632;-77
2023/06/28 10:11:30;;;;;;;1.93;1.83;;;22.50;53.20;;;;;;5072890;28;20991;-77
2023/06/28 10:13:57;;;;;;;2.20;2.00;;;22.80;54.40;;;;;;5071440;28;20625;-77
2023/06/28 10:16:26;;;;;;;2.40;2.20;;;22.70;53.20;;;;;;5068340;28;20749;-77
2023/06/28 10:18:55;;;;;;;1.77;1.60;;;22.90;52.90;;;;;;5068986;28;20635;-77
2023/06/28 10:21:22;;;;;;;1.50;1.40;;;22.70;52.20;;;;;;5066655;28;21265;-77
2023/06/28 10:23:49;;;;;;;2.17;2.00;;;22.80;52.60;;;;;;5069501;28;20663;-77
2023/06/28 10:26:18;;;;;;;1.70;1.60;;;22.80;52.20;;;;;;5065606;28;20647;-76
2023/06/28 10:28:45;;;;;;;2.27;1.60;;;22.50;53.00;;;;;;5072933;28;20629;-76
2023/06/28 10:31:13;;;;;;;2.00;1.90;;;22.80;52.20;;;;;;5068483;28;20642;-76
2023/06/28 10:33:40;;;;;;;1.77;1.67;;;23.10;51.80;;;;;;5069303;28;20732;-77
2023/06/28 10:36:08;;;;;;;3.00;1.80;;;23.50;51.70;;;;;;5074464;28;20652;-75
2023/06/28 10:38:42;;;;;;;3.67;1.87;;;23.80;50.70;;;;;;5079867;28;20636;-75
2023/06/28 10:41:09;;;;;;;1.87;1.77;;;24.20;51.00;;;;;;5075882;28;20655;-75
2023/06/28 10:43:36;;;;;;;1.50;1.40;;;24.30;50.30;;;;;;5070829;28;20646;-75
2023/06/28 10:46:21;;;;;;;2.00;1.70;;;24.50;49.70;;;;;;5076718;28;20642;-76
2023/06/28 10:48:48;;;;;;;1.53;1.43;;;24.70;50.30;;;;;;5064417;28;20627;-75
2023/06/28 10:51:21;;;;;;;1.43;1.33;;;24.70;50.60;;;;;;5076885;28;20655;-76
2023/06/28 10:54:12;;;;;;;1.53;1.43;;;25.10;50.50;;;;;;5067711;28;20616;-75
2023/06/28 10:56:43;;;;;;;1.87;1.77;;;25.50;50.00;;;;;;5074328;28;20793;-75
2023/06/28 10:59:10;;;;;;;1.87;1.77;;;25.20;49.60;;;;;;5076436;28;21493;-76
2023/06/28 11:01:40;;;;;;;1.57;1.47;;;24.90;49.10;;;;;;5081400;28;20675;-76
2023/06/28 11:04:18;;;;;;;1.30;1.20;;;24.50;49.60;;;;;;5074836;28;20666;-76
2023/06/28 11:06:47;;;;;;;1.40;1.30;;;24.10;49.60;;;;;;5076227;28;20978;-76
2023/06/28 11:09:16;;;;;;;1.17;1.17;;;23.50;51.00;;;;;;5079506;28;20735;-75
2023/06/28 11:11:54;;;;;;;4.87;1.60;;;23.30;51.50;;;;;;5071111;28;20648;-76
2023/06/28 11:14:23;;;;;;;4.50;1.47;;;23.10;51.00;;;;;;5072789;28;21253;-76
2023/06/28 11:16:51;;;;;;;2.30;2.10;;;23.70;51.50;;;;;;5076863;28;20654;-76
2023/06/28 11:19:22;;;;;;;1.60;1.50;;;24.10;51.10;;;;;;5076444;28;20657;-77
2023/06/28 11:21:56;;;;;;;2.07;1.93;;;24.80;50.10;;;;;;5071755;28;20667;-79
2023/06/28 11:24:42;;;;;;;2.10;1.50;;;25.40;48.50;;;;;;5070802;28;20651;-79
2023/06/28 11:27:11;;;;;;;1.50;1.40;;;26.10;47.50;;;;;;5081191;28;21247;-77
2023/06/28 11:29:53;;;;;;;2.77;1.90;;;26.60;46.90;;;;;;5077003;28;20627;-75
2023/06/28 11:32:24;;;;;;;1.60;1.50;;;27.10;47.00;;;;;;5080146;28;20652;-75
2023/06/28 11:34:52;;;;;;;1.70;1.60;;;27.20;47.00;;;;;;5078691;28;20628;-74
2023/06/28 11:37:22;;;;;;;1.40;1.17;;;26.90;46.20;;;;;;5072276;28;20664;-75
2023/06/28 11:39:49;;;;;;;1.60;1.50;;;26.90;46.30;;;;;;5076796;28;21243;-75
2023/06/28 11:42:16;;;;;;;1.83;1.50;;;26.60;46.20;;;;;;5074888;28;20980;-75
2023/06/28 11:44:47;;;;;;;1.53;1.43;;;26.80;47.20;;;;;;5080062;28;20708;-75
2023/06/28 11:47:14;;;;;;;1.40;1.30;;;26.20;47.20;;;;;;5073803;28;20734;-75
2023/06/28 11:49:41;;;;;;;1.77;1.67;;;25.90;47.80;;;;;;5080249;28;20645;-75
2023/06/28 11:52:10;;;;;;;1.23;1.23;;;25.40;46.80;;;;;;5081759;28;20712;-75
2023/06/28 11:54:39;;;;;;;2.43;2.03;;;24.90;48.30;;;;;;5079008;28;20634;-75
2023/06/28 11:57:06;;;;;;;1.50;1.40;;;24.40;47.90;;;;;;5077024;28;20648;-75
2023/06/28 11:59:34;;;;;;;1.20;1.20;;;25.20;48.90;;;;;;5080193;28;20740;-75
2023/06/28 12:02:03;;;;;;;1.60;1.50;;;26.10;46.80;;;;;;5074043;28;20740;-72
2023/06/28 12:04:31;;;;;;;1.73;1.40;;;27.20;47.50;;;;;;5075217;28;20660;-77
2023/06/28 12:07:01;;;;;;;1.20;1.10;;;28.70;46.30;;;;;;5079926;28;20870;-75
2023/06/28 12:09:29;;;;;;;1.50;1.10;;;29.60;42.90;;;;;;5079771;28;20661;-75
2023/06/28 12:11:59;;;;;;;2.35;1.50;;;30.70;43.00;;;;;;5076573;28;20741;-74
2023/06/28 12:14:27;;;;;;;1.50;1.40;;;32.30;39.70;;;;;;5071522;28;20242;-75
2023/06/28 12:16:54;;;;;;;0.97;0.97;;;32.70;38.60;;;;;;5078146;28;20740;-75
2023/06/28 12:19:26;;;;;;;1.50;1.40;;;31.70;38.90;;;;;;5078697;28;20625;-74
2023/06/28 12:21:54;;;;;;;1.10;1.00;;;30.50;41.00;;;;;;5071766;28;20667;-74
2023/06/28 12:24:24;;;;;;;0.97;0.93;;;29.40;41.80;;;;;;5070281;28;20668;-73
2023/06/28 12:26:52;;;;;;;1.00;1.00;;;28.70;42.10;;;;;;5070754;28;20652;-73
2023/06/28 12:29:20;;;;;;;1.27;1.17;;;28.20;42.40;;;;;;5069271;28;20674;-73
2023/06/28 12:31:49;;;;;;;1.40;1.30;;;28.00;43.40;;;;;;5068847;28;20755;-73
2023/06/28 12:34:22;;;;;;;1.73;1.27;;;28.50;43.10;;;;;;5070773;28;20991;-73
2023/06/28 12:36:51;;;;;;;1.37;1.17;;;29.90;41.10;;;;;;5077988;28;20643;-73
2023/06/28 12:39:22;;;;;;;2.10;1.90;;;30.80;41.10;;;;;;5067654;28;20625;-73
2023/06/28 12:42:05;;;;;;;1.10;0.90;;;31.90;39.00;;;;;;5071598;28;20641;-73
2023/06/28 12:44:49;;;;;;;1.43;1.33;;;30.60;40.50;;;;;;5072192;28;21225;-73
2023/06/28 12:47:16;;;;;;;1.30;1.20;;;29.70;41.20;;;;;;5069582;28;21006;-74
2023/06/28 12:49:44;;;;;;;1.10;1.10;;;29.80;40.40;;;;;;5083467;28;20630;-73
2023/06/28 12:52:11;;;;;;;1.20;1.10;;;29.20;41.30;;;;;;5074829;28;20657;-73
2023/06/28 12:54:38;;;;;;;1.57;1.47;;;28.40;43.50;;;;;;5070751;28;21215;-73
2023/06/28 12:57:05;;;;;;;1.17;1.17;;;29.20;42.40;;;;;;5074971;28;20674;-73